createdAt,value
2018-08-18T00:01:30.246Z,15.30
2018-08-18T00:03:32.302Z,15.40
2018-08-18T00:05:34.369Z,15.40
2018-08-18T00:07:36.437Z,15.40
2018-08-18T00:09:38.505Z,15.50
2018-08-18T00:11:40.538Z,15.40
2018-08-18T00:13:52.071Z,15.40
2018-08-18T00:15:54.106Z,15.30
2018-08-18T00:17:56.161Z,15.20
2018-08-18T00:19:58.227Z,15.20
2018-08-18T00:22:00.317Z,15.20
2018-08-18T00:24:08.194Z,15.20
2018-08-18T00:26:10.674Z,15.20
2018-08-18T00:28:23.353Z,15.20
2018-08-18T00:30:27.424Z,15.10
2018-08-18T00:32:29.624Z,15.10
2018-08-18T00:34:32.237Z,15.00
2018-08-18T00:36:34.336Z,14.80
2018-08-18T00:38:36.384Z,14.80
2018-08-18T00:40:38.456Z,14.70
2018-08-18T00:42:40.821Z,14.80
2018-08-18T00:44:42.861Z,14.80
2018-08-18T00:46:44.946Z,14.80
2018-08-18T00:48:47.006Z,14.80
2018-08-18T00:50:49.089Z,14.80
2018-08-18T00:52:51.133Z,14.70
2018-08-18T00:54:53.193Z,14.70
2018-08-18T00:56:59.283Z,14.70
2018-08-18T00:59:01.311Z,14.70
2018-08-18T01:01:05.129Z,14.70
2018-08-18T01:03:07.270Z,14.70
2018-08-18T01:05:09.315Z,14.70
2018-08-18T01:07:14.074Z,14.70
2018-08-18T01:09:16.148Z,14.70
2018-08-18T01:11:18.283Z,14.60
2018-08-18T01:13:20.315Z,14.50
2018-08-18T01:15:27.067Z,14.50
2018-08-18T01:17:29.157Z,14.40
2018-08-18T01:19:31.297Z,14.30
2018-08-18T01:21:33.601Z,14.30
2018-08-18T01:23:35.657Z,14.20
2018-08-18T01:25:37.737Z,14.20
2018-08-18T01:27:49.839Z,14.10
2018-08-18T01:30:01.446Z,14.20
2018-08-18T01:32:03.606Z,14.00
2018-08-18T01:34:06.360Z,14.10
2018-08-18T01:36:08.445Z,14.20
2018-08-18T01:38:10.486Z,14.30
2018-08-18T01:40:12.520Z,14.30
2018-08-18T01:42:14.569Z,14.30
2018-08-18T01:44:23.584Z,14.40
2018-08-18T01:46:25.647Z,14.40
2018-08-18T01:48:27.714Z,14.40
2018-08-18T01:50:29.776Z,14.40
2018-08-18T01:52:32.053Z,14.30
2018-08-18T01:54:34.129Z,14.30
2018-08-18T01:56:36.206Z,14.30
2018-08-18T01:58:38.349Z,14.20
2018-08-18T02:00:40.402Z,14.30
2018-08-18T02:02:42.493Z,14.20
2018-08-18T02:04:45.177Z,14.20
2018-08-18T02:06:47.311Z,14.10
2018-08-18T02:08:57.505Z,14.00
2018-08-18T02:10:59.553Z,14.00
2018-08-18T02:13:03.042Z,13.80
2018-08-18T02:15:05.080Z,13.70
2018-08-18T02:17:15.085Z,13.70
2018-08-18T02:19:17.514Z,13.70
2018-08-18T02:21:27.570Z,13.70
2018-08-18T02:23:29.633Z,13.60
2018-08-18T02:25:32.110Z,13.60
2018-08-18T02:27:34.193Z,13.60
2018-08-18T02:29:36.326Z,13.60
2018-08-18T02:31:38.352Z,13.60
2018-08-18T02:33:40.384Z,13.60
2018-08-18T02:35:42.417Z,13.50
2018-08-18T02:37:44.452Z,13.40
2018-08-18T02:39:46.485Z,13.40
2018-08-18T02:41:56.787Z,13.40
2018-08-18T02:43:59.448Z,13.40
2018-08-18T02:46:16.410Z,13.40
2018-08-18T02:48:19.237Z,13.40
2018-08-18T02:50:21.265Z,13.40
2018-08-18T02:52:25.517Z,13.30
2018-08-18T02:54:32.166Z,13.20
2018-08-18T02:56:41.529Z,13.30
2018-08-18T02:58:48.168Z,13.20
2018-08-18T03:00:50.196Z,13.20
2018-08-18T03:02:52.244Z,13.30
2018-08-18T03:04:54.263Z,13.20
2018-08-18T03:06:56.289Z,13.10
2018-08-18T03:08:58.629Z,13.20
2018-08-18T03:11:00.650Z,13.20
2018-08-18T03:13:02.670Z,13.00
2018-08-18T03:15:04.701Z,12.90
2018-08-18T03:17:07.509Z,12.80
2018-08-18T03:19:12.205Z,12.70
2018-08-18T03:21:14.457Z,12.70
2018-08-18T03:23:16.505Z,12.60
2018-08-18T03:25:18.934Z,12.60
2018-08-18T03:27:20.945Z,12.70
2018-08-18T03:29:25.057Z,12.70
2018-08-18T03:31:27.104Z,12.70
2018-08-18T03:33:29.151Z,12.70
2018-08-18T03:35:31.194Z,12.70
2018-08-18T03:37:33.241Z,12.60
2018-08-18T03:39:35.270Z,12.70
2018-08-18T03:41:37.300Z,12.70
2018-08-18T03:43:39.305Z,12.80
2018-08-18T03:45:41.326Z,12.80
2018-08-18T03:47:43.348Z,12.80
2018-08-18T03:49:45.364Z,12.80
2018-08-18T03:51:49.695Z,12.70
2018-08-18T03:53:51.776Z,12.70
2018-08-18T03:55:53.837Z,12.60
2018-08-18T03:57:55.886Z,12.60
2018-08-18T03:59:57.914Z,12.60
2018-08-18T04:02:00.712Z,12.60
2018-08-18T04:04:02.633Z,12.60
2018-08-18T04:06:04.661Z,12.60
2018-08-18T04:08:06.682Z,12.50
2018-08-18T04:10:08.796Z,12.50
2018-08-18T04:12:10.832Z,12.60
2018-08-18T04:14:13.024Z,12.60
2018-08-18T04:16:15.045Z,12.60
2018-08-18T04:18:17.082Z,12.70
2018-08-18T04:20:19.122Z,12.70
2018-08-18T04:22:21.956Z,12.70
2018-08-18T04:24:29.445Z,12.60
2018-08-18T04:26:31.449Z,12.60
2018-08-18T04:28:33.565Z,12.50
2018-08-18T04:30:35.550Z,12.50
2018-08-18T04:32:53.432Z,12.50
2018-08-18T04:34:55.445Z,12.40
2018-08-18T04:36:57.901Z,12.40
2018-08-18T04:38:59.903Z,12.50
2018-08-18T04:41:01.938Z,12.50
2018-08-18T04:43:03.946Z,12.60
2018-08-18T04:45:06.001Z,12.60
2018-08-18T04:47:09.912Z,12.60
2018-08-18T04:49:11.954Z,12.70
2018-08-18T04:51:14.349Z,12.60
2018-08-18T04:53:16.366Z,12.60
2018-08-18T04:55:18.765Z,12.70
2018-08-18T04:57:20.802Z,12.60
2018-08-18T04:59:22.940Z,12.50
2018-08-18T05:01:24.870Z,12.60
2018-08-18T05:03:26.985Z,12.70
2018-08-18T05:05:30.334Z,12.70
2018-08-18T05:07:36.647Z,12.80
2018-08-18T05:09:38.678Z,12.90
2018-08-18T05:11:40.733Z,12.90
2018-08-18T05:13:42.749Z,12.90
2018-08-18T05:15:44.781Z,13.00
2018-08-18T05:17:48.006Z,13.00
2018-08-18T05:20:04.305Z,13.10
2018-08-18T05:22:06.425Z,13.20
2018-08-18T05:24:21.741Z,13.30
2018-08-18T05:26:24.692Z,13.30
2018-08-18T05:28:26.726Z,13.40
2018-08-18T05:30:28.773Z,13.50
2018-08-18T05:32:30.789Z,13.50
2018-08-18T05:34:32.796Z,13.60
2018-08-18T05:36:34.891Z,13.70
2018-08-18T05:38:37.310Z,13.80
2018-08-18T05:40:39.324Z,13.90
2018-08-18T05:42:41.333Z,13.90
2018-08-18T05:44:43.393Z,14.10
2018-08-18T05:46:45.429Z,14.20
2018-08-18T05:48:47.438Z,14.30
2018-08-18T05:50:51.961Z,14.40
2018-08-18T05:53:01.872Z,14.50
2018-08-18T05:55:09.142Z,14.60
2018-08-18T05:57:11.182Z,14.70
2018-08-18T05:59:13.189Z,14.80
2018-08-18T06:01:25.377Z,15.00
2018-08-18T06:03:30.690Z,15.10
2018-08-18T06:05:33.723Z,15.20
2018-08-18T06:07:35.743Z,15.30
2018-08-18T06:09:38.878Z,15.50
2018-08-18T06:11:41.077Z,15.60
2018-08-18T06:13:43.944Z,15.70
2018-08-18T06:16:03.465Z,15.90
2018-08-18T06:18:05.557Z,16.00
2018-08-18T06:20:09.072Z,16.20
2018-08-18T06:22:11.081Z,16.40
2018-08-18T06:24:13.557Z,16.50
2018-08-18T06:26:16.229Z,16.60
2018-08-18T06:28:18.236Z,16.80
2018-08-18T06:30:20.262Z,17.00
2018-08-18T06:32:23.288Z,17.10
2018-08-18T06:34:27.543Z,17.30
2018-08-18T06:36:30.386Z,17.30
2018-08-18T06:38:32.509Z,17.50
2018-08-18T06:40:34.514Z,17.70
2018-08-18T06:42:38.173Z,17.70
2018-08-18T06:44:41.374Z,17.90
2018-08-18T06:46:46.817Z,18.10
2018-08-18T06:48:48.824Z,18.20
2018-08-18T06:50:51.657Z,18.30
2018-08-18T06:52:53.680Z,18.50
2018-08-18T06:54:56.193Z,18.80
2018-08-18T06:56:58.920Z,18.90
2018-08-18T06:59:05.915Z,19.00
2018-08-18T07:01:09.581Z,19.10
2018-08-18T07:03:23.269Z,19.40
2018-08-18T07:05:27.472Z,19.50
2018-08-18T07:07:32.672Z,19.70
2018-08-18T07:09:34.676Z,19.80
2018-08-18T07:11:37.457Z,19.80
2018-08-18T07:13:41.473Z,19.90
2018-08-18T07:15:44.227Z,20.10
2018-08-18T07:17:47.513Z,20.40
2018-08-18T07:19:49.528Z,20.40
2018-08-18T07:21:52.503Z,20.60
2018-08-18T07:23:56.869Z,20.70
2018-08-18T07:26:00.744Z,20.80
2018-08-18T07:28:08.724Z,21.00
2018-08-18T07:30:10.690Z,21.20
2018-08-18T07:32:12.738Z,21.30
2018-08-18T07:34:15.652Z,21.80
2018-08-18T07:36:18.558Z,22.10
2018-08-18T07:38:20.672Z,22.30
2018-08-18T07:40:30.484Z,22.50
2018-08-18T07:42:32.490Z,22.30
2018-08-18T07:44:35.501Z,22.60
2018-08-18T07:46:37.573Z,22.60
2018-08-18T07:48:40.408Z,22.70
2018-08-18T07:50:43.135Z,23.00
2018-08-18T07:52:46.263Z,23.20
2018-08-18T07:54:48.573Z,23.30
2018-08-18T07:56:52.185Z,23.50
2018-08-18T07:58:54.193Z,23.50
2018-08-18T08:00:59.616Z,23.50
2018-08-18T08:03:06.792Z,23.60
2018-08-18T08:05:09.827Z,23.80
2018-08-18T08:07:14.333Z,23.80
2018-08-18T08:09:16.352Z,23.60
2018-08-18T08:11:19.430Z,23.60
2018-08-18T08:13:24.710Z,23.70
2018-08-18T08:15:27.633Z,23.50
2018-08-18T08:17:30.797Z,23.60
2018-08-18T08:19:34.389Z,23.80
2018-08-18T08:21:36.420Z,24.10
2018-08-18T08:23:43.971Z,24.30
2018-08-18T08:25:47.536Z,24.40
2018-08-18T08:27:50.889Z,24.50
2018-08-18T08:29:53.952Z,24.40
2018-08-18T08:31:57.030Z,24.50
2018-08-18T08:33:59.048Z,24.50
2018-08-18T08:36:01.140Z,24.80
2018-08-18T08:38:04.732Z,24.90
2018-08-18T08:40:15.545Z,24.90
2018-08-18T08:42:17.529Z,24.90
2018-08-18T08:44:19.669Z,25.30
2018-08-18T08:46:21.753Z,25.30
2018-08-18T08:48:23.796Z,25.40
2018-08-18T08:50:28.409Z,25.40
2018-08-18T08:52:39.069Z,25.60
2018-08-18T08:54:42.570Z,25.70
2018-08-18T08:56:44.653Z,25.60
2018-08-18T08:58:50.525Z,25.20
2018-08-18T09:00:52.526Z,25.70
2018-08-18T09:02:56.821Z,26.00
2018-08-18T09:04:59.545Z,26.00
2018-08-18T09:07:05.674Z,26.10
2018-08-18T09:09:08.749Z,26.30
2018-08-18T09:11:10.843Z,26.50
2018-08-18T09:13:14.813Z,26.40
2018-08-18T09:15:18.004Z,26.10
2018-08-18T09:17:20.780Z,26.50
2018-08-18T09:19:22.782Z,26.60
2018-08-18T09:21:24.836Z,26.70
2018-08-18T09:23:30.445Z,26.40
2018-08-18T09:25:32.465Z,26.30
2018-08-18T09:27:36.070Z,26.60
2018-08-18T09:29:48.230Z,26.70
2018-08-18T09:31:52.496Z,26.50
2018-08-18T09:33:54.514Z,26.40
2018-08-18T09:36:02.291Z,26.70
2018-08-18T09:38:04.333Z,27.00
2018-08-18T09:40:06.389Z,26.80
2018-08-18T09:42:09.709Z,26.70
2018-08-18T09:44:21.223Z,26.80
2018-08-18T09:46:23.543Z,26.90
2018-08-18T09:48:29.444Z,27.20
2018-08-18T09:50:31.501Z,27.20
2018-08-18T09:52:33.554Z,27.40
2018-08-18T09:54:36.691Z,27.40
2018-08-18T09:56:38.705Z,27.70
2018-08-18T09:58:41.785Z,27.90
2018-08-18T10:00:45.142Z,27.70
2018-08-18T10:02:47.313Z,27.70
2018-08-18T10:04:49.340Z,27.80
2018-08-18T10:06:52.949Z,28.10
2018-08-18T10:08:56.173Z,28.40
2018-08-18T10:10:59.413Z,28.30
2018-08-18T10:13:05.790Z,27.90
2018-08-18T10:15:08.701Z,28.10
2018-08-18T10:17:11.342Z,28.10
2018-08-18T10:19:13.497Z,28.00
2018-08-18T10:21:16.954Z,27.90
2018-08-18T10:23:19.788Z,28.30
2018-08-18T10:25:21.935Z,28.20
2018-08-18T10:27:24.047Z,28.50
2018-08-18T10:29:26.155Z,28.40
2018-08-18T10:31:28.257Z,28.50
2018-08-18T10:33:30.276Z,28.00
2018-08-18T10:35:32.317Z,28.50
2018-08-18T10:37:34.317Z,28.40
2018-08-18T10:39:37.242Z,28.70
2018-08-18T10:41:50.765Z,28.30
2018-08-18T10:43:52.781Z,28.30
2018-08-18T10:45:54.818Z,28.00
2018-08-18T10:47:56.849Z,27.50
2018-08-18T10:50:10.533Z,27.60
2018-08-18T10:52:24.381Z,28.00
2018-08-18T10:54:26.432Z,28.70
2018-08-18T10:56:28.809Z,28.70
2018-08-18T11:00:40.575Z,29.20
2018-08-18T11:02:45.330Z,29.00
2018-08-18T11:04:47.432Z,29.10
2018-08-18T11:06:49.573Z,29.00
2018-08-18T11:08:51.692Z,28.70
2018-08-18T11:10:54.349Z,29.20
2018-08-18T11:12:56.534Z,29.30
2018-08-18T11:14:59.759Z,29.20
2018-08-18T11:17:01.894Z,29.20
2018-08-18T11:19:04.066Z,28.70
2018-08-18T11:21:07.168Z,28.60
2018-08-18T11:23:12.090Z,29.00
2018-08-18T11:25:14.126Z,29.10
2018-08-18T11:27:16.153Z,29.10
2018-08-18T11:29:19.037Z,29.10
2018-08-18T11:31:21.053Z,29.60
2018-08-18T11:33:39.321Z,29.60
2018-08-18T11:35:41.865Z,30.10
2018-08-18T11:37:52.833Z,30.00
2018-08-18T11:39:59.512Z,30.20
2018-08-18T11:42:01.612Z,30.10
2018-08-18T11:44:03.716Z,29.80
2018-08-18T11:46:06.177Z,29.80
2018-08-18T11:48:11.389Z,29.70
2018-08-18T11:50:13.490Z,29.70
2018-08-18T11:52:15.654Z,30.00
2018-08-18T11:54:17.722Z,30.30
2018-08-18T11:56:19.859Z,29.90
2018-08-18T11:58:23.263Z,29.80
2018-08-18T12:00:30.789Z,30.20
2018-08-18T12:02:32.973Z,30.30
2018-08-18T12:04:35.052Z,30.50
2018-08-18T12:06:42.159Z,30.60
2018-08-18T12:08:44.279Z,30.00
2018-08-18T12:10:47.315Z,30.20
2018-08-18T12:12:49.281Z,30.00
2018-08-18T12:14:52.789Z,30.30
2018-08-18T12:16:56.001Z,30.70
2018-08-18T12:18:58.165Z,30.40
2018-08-18T12:21:01.371Z,30.30
2018-08-18T12:23:03.442Z,30.60
2018-08-18T12:25:05.598Z,30.60
2018-08-18T12:27:10.894Z,30.60
2018-08-18T12:29:13.251Z,30.40
2018-08-18T12:31:19.233Z,30.70
2018-08-18T12:33:21.358Z,31.00
2018-08-18T12:35:28.121Z,30.70
2018-08-18T12:37:30.186Z,30.60
2018-08-18T12:39:32.232Z,29.90
2018-08-18T12:41:34.285Z,29.90
2018-08-18T12:43:38.040Z,29.80
2018-08-18T12:45:44.581Z,30.30
2018-08-18T12:47:54.539Z,30.60
2018-08-18T12:49:57.776Z,30.30
2018-08-18T12:51:59.789Z,30.90
2018-08-18T12:54:08.400Z,30.50
2018-08-18T12:56:11.535Z,30.30
2018-08-18T12:58:13.726Z,30.20
2018-08-18T13:00:16.089Z,30.20
2018-08-18T13:02:18.231Z,30.70
2018-08-18T13:04:21.413Z,30.90
2018-08-18T13:06:23.476Z,31.10
2018-08-18T13:08:25.546Z,30.80
2018-08-18T13:10:29.241Z,30.60
2018-08-18T13:12:32.226Z,30.60
2018-08-18T13:14:34.390Z,30.40
2018-08-18T13:16:36.857Z,30.60
2018-08-18T13:18:39.007Z,30.40
2018-08-18T13:20:41.102Z,30.50
2018-08-18T13:22:43.130Z,29.90
2018-08-18T13:24:45.355Z,29.60
2018-08-18T13:26:47.445Z,29.60
2018-08-18T13:28:52.971Z,30.00
2018-08-18T13:30:55.055Z,30.20
2018-08-18T13:32:58.176Z,29.90
2018-08-18T13:35:00.346Z,30.20
2018-08-18T13:37:02.514Z,30.10
2018-08-18T13:39:07.294Z,29.90
2018-08-18T13:41:13.428Z,29.90
2018-08-18T13:43:15.545Z,30.00
2018-08-18T13:45:17.865Z,29.80
2018-08-18T13:47:20.046Z,29.90
2018-08-18T13:49:24.296Z,29.90
2018-08-18T13:51:26.534Z,29.70
2018-08-18T13:53:32.149Z,29.70
2018-08-18T13:55:41.086Z,29.80
2018-08-18T13:57:43.147Z,29.60
2018-08-18T13:59:45.882Z,29.10
2018-08-18T14:01:47.936Z,29.10
2018-08-18T14:03:50.080Z,29.30
2018-08-18T14:05:52.940Z,29.40
2018-08-18T14:07:57.743Z,29.40
2018-08-18T14:10:00.496Z,29.40
2018-08-18T14:12:08.264Z,29.40
2018-08-18T14:14:10.326Z,28.90
2018-08-18T14:16:13.285Z,29.00
2018-08-18T14:18:15.377Z,29.20
2018-08-18T14:20:17.440Z,29.20
2018-08-18T14:22:20.732Z,29.40
2018-08-18T14:24:27.546Z,29.30
2018-08-18T14:26:29.639Z,29.40
2018-08-18T14:28:31.708Z,29.30
2018-08-18T14:30:34.634Z,29.30
2018-08-18T14:32:36.690Z,29.10
2018-08-18T14:34:38.772Z,28.90
2018-08-18T14:36:40.827Z,28.90
2018-08-18T14:38:44.638Z,28.70
2018-08-18T14:40:47.120Z,28.50
2018-08-18T14:42:50.197Z,28.60
2018-08-18T14:44:54.667Z,28.60
2018-08-18T14:46:56.763Z,28.60
2018-08-18T14:48:58.820Z,28.60
2018-08-18T14:51:01.015Z,28.60
2018-08-18T14:53:04.205Z,28.70
2018-08-18T14:55:06.278Z,28.70
2018-08-18T14:57:08.360Z,28.60
2018-08-18T14:59:10.505Z,28.40
2018-08-18T15:01:13.456Z,28.30
2018-08-18T15:03:15.512Z,28.00
2018-08-18T15:05:17.657Z,28.00
2018-08-18T15:07:19.751Z,27.70
2018-08-18T15:09:36.445Z,27.90
2018-08-18T15:11:38.689Z,28.00
2018-08-18T15:13:40.772Z,27.90
2018-08-18T15:15:42.997Z,27.60
2018-08-18T15:17:44.907Z,27.70
2018-08-18T15:19:46.945Z,27.90
2018-08-18T15:21:49.167Z,27.90
2018-08-18T15:23:51.267Z,27.80
2018-08-18T15:25:53.316Z,27.80
2018-08-18T15:27:56.805Z,27.60
2018-08-18T15:29:58.841Z,27.50
2018-08-18T15:32:00.929Z,27.70
2018-08-18T15:34:02.998Z,27.60
2018-08-18T15:36:15.320Z,27.60
2018-08-18T15:38:17.408Z,27.40
2018-08-18T15:40:19.473Z,27.30
2018-08-18T15:42:21.617Z,27.10
2018-08-18T15:44:23.676Z,27.10
2018-08-18T15:46:25.749Z,27.20
2018-08-18T15:48:27.918Z,27.30
2018-08-18T15:50:29.982Z,27.10
2018-08-18T15:52:33.025Z,27.20
2018-08-18T15:54:35.082Z,27.10
2018-08-18T15:56:37.138Z,27.20
2018-08-18T15:58:39.360Z,27.10
2018-08-18T16:00:41.434Z,27.00
2018-08-18T16:02:43.507Z,26.90
2018-08-18T16:04:45.589Z,26.80
2018-08-18T16:06:47.697Z,26.80
2018-08-18T16:08:50.139Z,26.70
2018-08-18T16:10:52.225Z,26.80
2018-08-18T16:12:54.290Z,26.70
2018-08-18T16:14:56.351Z,26.70
2018-08-18T16:16:59.740Z,26.80
2018-08-18T16:19:07.852Z,26.80
2018-08-18T16:21:17.445Z,26.70
2018-08-18T16:23:23.404Z,26.60
2018-08-18T16:25:35.519Z,26.70
2018-08-18T16:27:37.578Z,26.60
2018-08-18T16:29:39.936Z,26.50
2018-08-18T16:31:42.039Z,26.50
2018-08-18T16:33:44.116Z,26.40
2018-08-18T16:35:46.269Z,26.30
2018-08-18T16:37:48.374Z,26.20
2018-08-18T16:39:50.442Z,26.00
2018-08-18T16:41:52.551Z,25.90
2018-08-18T16:43:54.593Z,25.90
2018-08-18T16:46:02.829Z,25.80
2018-08-18T16:48:05.929Z,25.80
2018-08-18T16:50:08.057Z,25.70
2018-08-18T16:52:10.152Z,25.60
2018-08-18T16:54:20.722Z,25.40
2018-08-18T16:56:27.541Z,25.40
2018-08-18T16:58:30.202Z,25.40
2018-08-18T17:00:32.466Z,25.40
2018-08-18T17:02:35.491Z,25.30
2018-08-18T17:04:37.620Z,25.20
2018-08-18T17:06:39.672Z,25.20
2018-08-18T17:08:41.768Z,25.20
2018-08-18T17:10:43.844Z,25.20
2018-08-18T17:12:45.918Z,25.10
2018-08-18T17:14:48.104Z,25.10
2018-08-18T17:16:50.184Z,25.10
2018-08-18T17:18:52.248Z,25.00
2018-08-18T17:20:58.461Z,25.00
2018-08-18T17:23:00.541Z,24.90
2018-08-18T17:25:02.730Z,24.80
2018-08-18T17:27:04.974Z,24.80
2018-08-18T17:29:07.062Z,24.80
2018-08-18T17:31:09.101Z,24.70
2018-08-18T17:33:11.175Z,24.70
2018-08-18T17:35:13.200Z,24.60
2018-08-18T17:37:15.264Z,24.50
2018-08-18T17:39:17.441Z,24.50
2018-08-18T17:41:19.402Z,24.40
2018-08-18T17:43:21.474Z,24.30
2018-08-18T17:45:23.532Z,24.30
2018-08-18T17:47:25.564Z,24.20
2018-08-18T17:49:27.639Z,24.10
2018-08-18T17:51:29.664Z,24.00
2018-08-18T17:53:32.420Z,24.00
2018-08-18T17:55:34.456Z,24.00
2018-08-18T17:57:37.238Z,24.00
2018-08-18T17:59:39.345Z,24.00
2018-08-18T18:01:54.845Z,24.00
2018-08-18T18:03:56.897Z,23.90
2018-08-18T18:05:58.952Z,23.90
2018-08-18T18:08:05.952Z,23.90
2018-08-18T18:10:07.988Z,23.80
2018-08-18T18:12:28.723Z,23.80
2018-08-18T18:14:30.684Z,23.70
2018-08-18T18:16:32.729Z,23.60
2018-08-18T18:18:40.586Z,23.60
2018-08-18T18:20:44.483Z,23.60
2018-08-18T18:22:47.472Z,23.50
2018-08-18T18:24:49.814Z,23.40
2018-08-18T18:26:53.501Z,23.40
2018-08-18T18:28:55.544Z,23.40
2018-08-18T18:30:57.582Z,23.30
2018-08-18T18:32:59.597Z,23.20
2018-08-18T18:35:01.729Z,23.10
2018-08-18T18:37:03.721Z,23.10
2018-08-18T18:39:05.924Z,23.10
2018-08-18T18:41:07.947Z,23.00
2018-08-18T18:43:10.033Z,23.00
2018-08-18T18:45:12.129Z,22.90
2018-08-18T18:47:14.214Z,22.80
2018-08-18T18:49:28.801Z,22.80
2018-08-18T18:51:30.882Z,22.60
2018-08-18T18:53:45.468Z,22.50
2018-08-18T18:55:53.807Z,22.40
2018-08-18T18:58:07.430Z,22.30
2018-08-18T19:00:09.764Z,22.30
2018-08-18T19:02:11.793Z,22.30
2018-08-18T19:04:14.237Z,22.20
2018-08-18T19:06:16.291Z,22.20
2018-08-18T19:08:20.596Z,22.00
2018-08-18T19:10:23.276Z,22.00
2018-08-18T19:12:25.356Z,22.00
2018-08-18T19:14:27.324Z,21.90
2018-08-18T19:16:29.348Z,21.80
2018-08-18T19:18:31.418Z,21.80
2018-08-18T19:20:33.477Z,21.70
2018-08-18T19:22:35.505Z,21.60
2018-08-18T19:24:37.537Z,21.50
2018-08-18T19:26:45.506Z,21.50
2018-08-18T19:28:47.544Z,21.40
2018-08-18T19:30:49.589Z,21.30
2018-08-18T19:32:51.617Z,21.40
2018-08-18T19:34:53.632Z,21.30
2018-08-18T19:36:59.443Z,21.20
2018-08-18T19:39:01.538Z,21.20
2018-08-18T19:41:03.679Z,21.20
2018-08-18T19:43:09.281Z,21.10
2018-08-18T19:45:11.358Z,21.10
2018-08-18T19:47:20.102Z,21.00
2018-08-18T19:49:33.586Z,20.90
2018-08-18T19:51:35.678Z,20.70
2018-08-18T19:53:37.769Z,20.80
2018-08-18T19:55:39.847Z,20.70
2018-08-18T19:57:41.937Z,20.60
2018-08-18T19:59:44.073Z,20.60
2018-08-18T20:01:46.116Z,20.50
2018-08-18T20:03:48.172Z,20.40
2018-08-18T20:05:50.224Z,20.40
2018-08-18T20:07:52.292Z,20.50
2018-08-18T20:09:54.329Z,20.40
2018-08-18T20:11:56.454Z,20.40
2018-08-18T20:13:58.489Z,20.40
2018-08-18T20:16:02.030Z,20.30
2018-08-18T20:18:04.130Z,20.30
2018-08-18T20:20:06.195Z,20.20
2018-08-18T20:22:13.629Z,20.20
2018-08-18T20:24:15.657Z,20.20
2018-08-18T20:26:17.686Z,20.10
2018-08-18T20:28:19.720Z,20.10
2018-08-18T20:30:21.752Z,20.00
2018-08-18T20:32:23.787Z,19.90
2018-08-18T20:34:25.965Z,19.90
2018-08-18T20:36:28.003Z,19.90
2018-08-18T20:38:39.307Z,19.90
2018-08-18T20:40:41.525Z,19.90
2018-08-18T20:42:44.078Z,19.90
2018-08-18T20:44:46.109Z,19.90
2018-08-18T20:46:48.153Z,19.80
2018-08-18T20:48:50.202Z,19.80
2018-08-18T20:50:52.246Z,19.80
2018-08-18T20:52:58.901Z,19.80
2018-08-18T20:55:00.953Z,19.80
2018-08-18T20:57:02.991Z,19.80
2018-08-18T20:59:05.021Z,19.80
2018-08-18T21:01:07.052Z,19.70
2018-08-18T21:03:09.321Z,19.60
2018-08-18T21:05:11.544Z,19.60
2018-08-18T21:07:13.609Z,19.50
2018-08-18T21:09:28.259Z,19.50
2018-08-18T21:11:30.301Z,19.40
2018-08-18T21:13:32.425Z,19.40
2018-08-18T21:15:34.449Z,19.40
2018-08-18T21:17:36.488Z,19.40
2018-08-18T21:19:38.525Z,19.20
2018-08-18T21:21:40.653Z,19.10
2018-08-18T21:23:42.676Z,19.00
2018-08-18T21:25:48.802Z,19.00
2018-08-18T21:27:50.849Z,19.00
2018-08-18T21:29:53.804Z,19.00
2018-08-18T21:31:55.841Z,19.00
2018-08-18T21:34:00.336Z,19.10
2018-08-18T21:36:02.360Z,19.10
2018-08-18T21:38:04.786Z,19.00
2018-08-18T21:40:07.877Z,18.90
2018-08-18T21:42:09.940Z,18.90
2018-08-18T21:44:12.899Z,18.90
2018-08-18T21:46:14.957Z,18.90
2018-08-18T21:48:18.652Z,18.90
2018-08-18T21:50:20.692Z,18.90
2018-08-18T21:52:22.717Z,18.90
2018-08-18T21:54:26.820Z,18.90
2018-08-18T21:56:29.402Z,18.80
2018-08-18T21:58:31.425Z,18.70
2018-08-18T22:00:39.345Z,18.70
2018-08-18T22:02:42.016Z,18.70
2018-08-18T22:04:44.037Z,18.70
2018-08-18T22:06:46.070Z,18.70
2018-08-18T22:08:48.107Z,18.70
2018-08-18T22:10:54.793Z,18.70
2018-08-18T22:12:56.768Z,18.70
2018-08-18T22:14:59.860Z,18.60
2018-08-18T22:17:01.894Z,18.60
2018-08-18T22:19:04.013Z,18.50
2018-08-18T22:21:10.286Z,18.40
2018-08-18T22:23:12.309Z,18.30
2018-08-18T22:25:14.598Z,18.30
2018-08-18T22:27:16.908Z,18.30
2018-08-18T22:29:22.768Z,18.20
2018-08-18T22:31:25.077Z,18.10
2018-08-18T22:33:31.737Z,18.10
2018-08-18T22:35:33.968Z,18.10
2018-08-18T22:37:35.986Z,18.10
2018-08-18T22:39:38.019Z,18.20
2018-08-18T22:41:40.433Z,18.10
2018-08-18T22:43:42.461Z,18.10
2018-08-18T22:45:44.534Z,18.10
2018-08-18T22:47:46.552Z,18.00
2018-08-18T22:49:50.412Z,18.00
2018-08-18T22:51:52.431Z,18.00
2018-08-18T22:53:55.196Z,18.00
2018-08-18T22:55:57.235Z,17.90
2018-08-18T22:58:00.317Z,17.90
2018-08-18T23:00:02.369Z,17.80
2018-08-18T23:02:04.400Z,17.80
2018-08-18T23:04:26.898Z,17.80
2018-08-18T23:06:30.052Z,17.80
2018-08-18T23:08:32.081Z,17.80
2018-08-18T23:10:34.108Z,17.70
2018-08-18T23:12:36.136Z,17.60
2018-08-18T23:14:39.192Z,17.60
2018-08-18T23:16:41.233Z,17.60
2018-08-18T23:18:43.305Z,17.60
2018-08-18T23:20:45.357Z,17.60
2018-08-18T23:23:01.160Z,17.50
2018-08-18T23:25:03.615Z,17.40
2018-08-18T23:27:05.658Z,17.30
2018-08-18T23:29:07.704Z,17.30
2018-08-18T23:31:09.798Z,17.20
2018-08-18T23:33:11.934Z,17.20
2018-08-18T23:35:13.972Z,17.20
2018-08-18T23:37:18.878Z,17.30
2018-08-18T23:39:20.933Z,17.30
2018-08-18T23:41:23.935Z,17.30
2018-08-18T23:43:26.095Z,17.30
2018-08-18T23:45:35.823Z,17.30
2018-08-18T23:47:37.852Z,17.20
2018-08-18T23:49:40.030Z,17.10
2018-08-18T23:51:42.461Z,17.10
2018-08-18T23:53:44.482Z,17.10
2018-08-18T23:55:57.220Z,17.00
2018-08-18T23:57:59.981Z,16.90
